sensor_id;sensor_type;location;lat;lon;timestamp;temperature;humidity
19654;DHT22;9975;48.046;7.804;2023-05-10T01:56:35;12.90;99.90
19654;DHT22;9975;48.046;7.804;2023-05-10T01:59:06;12.90;99.90
19654;DHT22;9975;48.046;7.804;2023-05-10T02:01:33;12.90;99.90
19654;DHT22;9975;48.046;7.804;2023-05-10T02:04:00;12.90;99.90
19654;DHT22;9975;48.046;7.804;2023-05-10T02:06:27;12.90;99.90
19654;DHT22;9975;48.046;7.804;2023-05-10T02:08:53;12.90;99.90
19654;DHT22;9975;48.046;7.804;2023-05-10T02:11:20;12.90;99.90
19654;DHT22;9975;48.046;7.804;2023-05-10T02:13:49;12.90;99.90
19654;DHT22;9975;48.046;7.804;2023-05-10T02:16:16;12.90;99.90
19654;DHT22;9975;48.046;7.804;2023-05-10T02:18:43;12.90;99.90
19654;DHT22;9975;48.046;7.804;2023-05-10T02:21:10;12.90;99.90
19654;DHT22;9975;48.046;7.804;2023-05-10T02:23:36;13.00;99.90
19654;DHT22;9975;48.046;7.804;2023-05-10T02:26:03;13.00;99.90
19654;DHT22;9975;48.046;7.804;2023-05-10T02:28:31;13.00;99.90
19654;DHT22;9975;48.046;7.804;2023-05-10T02:30:58;13.00;99.90
19654;DHT22;9975;48.046;7.804;2023-05-10T02:33:24;13.00;99.90
19654;DHT22;9975;48.046;7.804;2023-05-10T02:35:51;13.00;99.90
19654;DHT22;9975;48.046;7.804;2023-05-10T02:38:19;13.00;99.90
19654;DHT22;9975;48.046;7.804;2023-05-10T02:40:46;13.00;99.90
19654;DHT22;9975;48.046;7.804;2023-05-10T02:43:14;13.00;99.90
19654;DHT22;9975;48.046;7.804;2023-05-10T02:45:42;13.00;99.90
19654;DHT22;9975;48.046;7.804;2023-05-10T02:48:08;13.00;99.90
19654;DHT22;9975;48.046;7.804;2023-05-10T02:50:35;13.00;99.90
19654;DHT22;9975;48.046;7.804;2023-05-10T02:53:09;13.00;99.90
19654;DHT22;9975;48.046;7.804;2023-05-10T02:55:38;13.00;99.90
19654;DHT22;9975;48.046;7.804;2023-05-10T02:58:06;12.90;99.90
19654;DHT22;9975;48.046;7.804;2023-05-10T03:00:31;12.90;99.90
19654;DHT22;9975;48.046;7.804;2023-05-10T03:02:58;12.90;99.90
19654;DHT22;9975;48.046;7.804;2023-05-10T03:05:24;12.90;99.90
19654;DHT22;9975;48.046;7.804;2023-05-10T03:07:50;13.00;99.90
19654;DHT22;9975;48.046;7.804;2023-05-10T03:10:17;13.00;99.90
19654;DHT22;9975;48.046;7.804;2023-05-10T03:12:57;12.90;99.90
19654;DHT22;9975;48.046;7.804;2023-05-10T03:18:22;12.90;99.90
19654;DHT22;9975;48.046;7.804;2023-05-10T03:20:50;12.90;99.90
19654;DHT22;9975;48.046;7.804;2023-05-10T03:25:44;13.00;99.90
19654;DHT22;9975;48.046;7.804;2023-05-10T03:28:12;13.00;99.90
19654;DHT22;9975;48.046;7.804;2023-05-10T03:30:38;12.90;99.90
19654;DHT22;9975;48.046;7.804;2023-05-10T03:33:07;12.90;99.90
19654;DHT22;9975;48.046;7.804;2023-05-10T03:35:33;12.90;99.90
19654;DHT22;9975;48.046;7.804;2023-05-10T03:37:58;12.90;99.90
19654;DHT22;9975;48.046;7.804;2023-05-10T03:40:25;12.80;99.90
19654;DHT22;9975;48.046;7.804;2023-05-10T03:42:51;12.90;99.90
19654;DHT22;9975;48.046;7.804;2023-05-10T03:45:16;12.80;99.90
19654;DHT22;9975;48.046;7.804;2023-05-10T03:47:42;12.80;99.90
19654;DHT22;9975;48.046;7.804;2023-05-10T03:50:08;12.80;99.90
19654;DHT22;9975;48.046;7.804;2023-05-10T03:52:33;12.80;99.90
19654;DHT22;9975;48.046;7.804;2023-05-10T03:54:59;12.70;99.90
19654;DHT22;9975;48.046;7.804;2023-05-10T03:57:24;12.70;99.90
19654;DHT22;9975;48.046;7.804;2023-05-10T03:59:50;12.70;99.90
19654;DHT22;9975;48.046;7.804;2023-05-10T04:02:16;12.70;99.90
19654;DHT22;9975;48.046;7.804;2023-05-10T04:04:42;12.80;99.90
19654;DHT22;9975;48.046;7.804;2023-05-10T04:07:07;12.80;99.90
19654;DHT22;9975;48.046;7.804;2023-05-10T04:09:33;12.80;99.90
19654;DHT22;9975;48.046;7.804;2023-05-10T04:11:59;12.80;99.90
19654;DHT22;9975;48.046;7.804;2023-05-10T04:14:26;12.80;99.90
19654;DHT22;9975;48.046;7.804;2023-05-10T04:16:52;12.80;99.90
19654;DHT22;9975;48.046;7.804;2023-05-10T04:19:17;12.70;99.90
19654;DHT22;9975;48.046;7.804;2023-05-10T04:21:43;12.70;99.90
19654;DHT22;9975;48.046;7.804;2023-05-10T04:24:08;12.60;99.90
19654;DHT22;9975;48.046;7.804;2023-05-10T04:26:34;12.70;99.90
19654;DHT22;9975;48.046;7.804;2023-05-10T04:29:00;12.60;99.90
19654;DHT22;9975;48.046;7.804;2023-05-10T04:31:25;12.60;99.90
19654;DHT22;9975;48.046;7.804;2023-05-10T04:33:52;12.50;99.90
19654;DHT22;9975;48.046;7.804;2023-05-10T04:36:17;12.60;99.90
19654;DHT22;9975;48.046;7.804;2023-05-10T04:38:43;12.60;99.90
19654;DHT22;9975;48.046;7.804;2023-05-10T04:41:10;12.50;99.90
19654;DHT22;9975;48.046;7.804;2023-05-10T04:43:36;12.50;99.90
19654;DHT22;9975;48.046;7.804;2023-05-10T04:46:02;12.50;99.90
19654;DHT22;9975;48.046;7.804;2023-05-10T04:48:28;12.50;99.90
19654;DHT22;9975;48.046;7.804;2023-05-10T04:50:54;12.50;99.90
19654;DHT22;9975;48.046;7.804;2023-05-10T04:53:20;12.50;99.90
19654;DHT22;9975;48.046;7.804;2023-05-10T04:55:45;12.60;99.90
19654;DHT22;9975;48.046;7.804;2023-05-10T04:58:12;12.50;99.90
19654;DHT22;9975;48.046;7.804;2023-05-10T05:00:37;12.50;99.90
19654;DHT22;9975;48.046;7.804;2023-05-10T05:03:03;12.60;99.90
19654;DHT22;9975;48.046;7.804;2023-05-10T05:05:28;12.60;99.90
19654;DHT22;9975;48.046;7.804;2023-05-10T05:07:54;12.60;99.90
19654;DHT22;9975;48.046;7.804;2023-05-10T05:10:20;12.50;99.90
19654;DHT22;9975;48.046;7.804;2023-05-10T05:12:45;12.60;99.90
19654;DHT22;9975;48.046;7.804;2023-05-10T05:15:11;12.50;99.90
19654;DHT22;9975;48.046;7.804;2023-05-10T05:17:37;12.50;99.90
19654;DHT22;9975;48.046;7.804;2023-05-10T05:20:03;12.50;99.90
19654;DHT22;9975;48.046;7.804;2023-05-10T05:22:28;12.60;99.90
19654;DHT22;9975;48.046;7.804;2023-05-10T05:24:55;12.60;99.90
19654;DHT22;9975;48.046;7.804;2023-05-10T05:27:20;12.60;99.90
19654;DHT22;9975;48.046;7.804;2023-05-10T05:29:52;12.60;99.90
19654;DHT22;9975;48.046;7.804;2023-05-10T05:32:18;12.70;99.90
19654;DHT22;9975;48.046;7.804;2023-05-10T05:34:45;12.70;99.90
19654;DHT22;9975;48.046;7.804;2023-05-10T05:37:18;12.70;99.90
19654;DHT22;9975;48.046;7.804;2023-05-10T05:39:45;12.80;99.90
19654;DHT22;9975;48.046;7.804;2023-05-10T05:42:11;12.70;99.90
19654;DHT22;9975;48.046;7.804;2023-05-10T05:44:37;12.70;99.90
19654;DHT22;9975;48.046;7.804;2023-05-10T05:47:03;12.70;99.90
19654;DHT22;9975;48.046;7.804;2023-05-10T05:49:29;12.70;99.90
19654;DHT22;9975;48.046;7.804;2023-05-10T05:52:02;12.70;99.90
19654;DHT22;9975;48.046;7.804;2023-05-10T05:54:28;12.70;99.90
19654;DHT22;9975;48.046;7.804;2023-05-10T05:56:55;12.80;99.90
19654;DHT22;9975;48.046;7.804;2023-05-10T05:59:21;12.80;99.90
19654;DHT22;9975;48.046;7.804;2023-05-10T06:01:47;12.80;99.90
19654;DHT22;9975;48.046;7.804;2023-05-10T06:04:12;12.80;99.90
19654;DHT22;9975;48.046;7.804;2023-05-10T06:06:38;12.80;99.90
19654;DHT22;9975;48.046;7.804;2023-05-10T06:09:04;12.70;99.90
19654;DHT22;9975;48.046;7.804;2023-05-10T06:11:29;12.80;99.90
19654;DHT22;9975;48.046;7.804;2023-05-10T06:13:57;12.70;99.90
19654;DHT22;9975;48.046;7.804;2023-05-10T06:16:23;12.70;99.90
19654;DHT22;9975;48.046;7.804;2023-05-10T06:18:49;12.70;99.90
19654;DHT22;9975;48.046;7.804;2023-05-10T06:21:14;12.70;99.90
19654;DHT22;9975;48.046;7.804;2023-05-10T06:23:41;12.60;99.90
19654;DHT22;9975;48.046;7.804;2023-05-10T06:26:07;12.60;99.90
19654;DHT22;9975;48.046;7.804;2023-05-10T06:28:32;12.60;99.90
19654;DHT22;9975;48.046;7.804;2023-05-10T06:30:59;12.60;99.90
19654;DHT22;9975;48.046;7.804;2023-05-10T06:33:25;12.60;99.90
19654;DHT22;9975;48.046;7.804;2023-05-10T06:35:51;12.50;99.90
19654;DHT22;9975;48.046;7.804;2023-05-10T06:38:16;12.60;99.90
19654;DHT22;9975;48.046;7.804;2023-05-10T06:40:42;12.60;99.90
19654;DHT22;9975;48.046;7.804;2023-05-10T06:43:08;12.50;99.90
19654;DHT22;9975;48.046;7.804;2023-05-10T06:45:34;12.60;99.90
19654;DHT22;9975;48.046;7.804;2023-05-10T06:48:00;12.60;99.90
19654;DHT22;9975;48.046;7.804;2023-05-10T06:50:26;12.50;99.90
19654;DHT22;9975;48.046;7.804;2023-05-10T06:52:52;12.60;99.90
19654;DHT22;9975;48.046;7.804;2023-05-10T06:55:17;12.70;99.90
19654;DHT22;9975;48.046;7.804;2023-05-10T06:57:43;12.70;99.90
19654;DHT22;9975;48.046;7.804;2023-05-10T07:00:10;12.70;99.90
19654;DHT22;9975;48.046;7.804;2023-05-10T07:02:36;12.80;99.90
19654;DHT22;9975;48.046;7.804;2023-05-10T07:05:02;12.80;99.90
19654;DHT22;9975;48.046;7.804;2023-05-10T07:07:28;12.80;99.90
19654;DHT22;9975;48.046;7.804;2023-05-10T07:09:54;12.70;99.90
19654;DHT22;9975;48.046;7.804;2023-05-10T07:12:21;12.70;99.90
19654;DHT22;9975;48.046;7.804;2023-05-10T07:14:47;12.80;99.90
19654;DHT22;9975;48.046;7.804;2023-05-10T07:17:13;12.80;99.90
19654;DHT22;9975;48.046;7.804;2023-05-10T07:19:38;12.90;99.90
19654;DHT22;9975;48.046;7.804;2023-05-10T07:22:04;13.00;99.90
19654;DHT22;9975;48.046;7.804;2023-05-10T07:24:29;13.10;99.90
19654;DHT22;9975;48.046;7.804;2023-05-10T07:26:56;13.20;99.90
19654;DHT22;9975;48.046;7.804;2023-05-10T07:29:22;13.20;99.90
19654;DHT22;9975;48.046;7.804;2023-05-10T07:31:47;13.30;99.90
19654;DHT22;9975;48.046;7.804;2023-05-10T07:34:13;13.30;99.90
19654;DHT22;9975;48.046;7.804;2023-05-10T07:36:38;13.30;99.90
19654;DHT22;9975;48.046;7.804;2023-05-10T07:39:04;13.30;99.90
19654;DHT22;9975;48.046;7.804;2023-05-10T07:41:30;13.30;99.90
19654;DHT22;9975;48.046;7.804;2023-05-10T07:43:56;13.40;99.90
19654;DHT22;9975;48.046;7.804;2023-05-10T07:46:21;13.40;99.90
19654;DHT22;9975;48.046;7.804;2023-05-10T07:48:47;13.50;99.90
19654;DHT22;9975;48.046;7.804;2023-05-10T07:51:13;13.50;99.90
19654;DHT22;9975;48.046;7.804;2023-05-10T07:53:38;13.70;99.90
19654;DHT22;9975;48.046;7.804;2023-05-10T07:58:46;14.10;99.90
19654;DHT22;9975;48.046;7.804;2023-05-10T08:01:12;14.30;99.90
19654;DHT22;9975;48.046;7.804;2023-05-10T08:03:38;14.50;99.90
19654;DHT22;9975;48.046;7.804;2023-05-10T08:06:03;14.40;99.90
19654;DHT22;9975;48.046;7.804;2023-05-10T08:08:29;14.30;99.90
19654;DHT22;9975;48.046;7.804;2023-05-10T08:10:55;14.30;99.90
19654;DHT22;9975;48.046;7.804;2023-05-10T08:13:21;14.30;99.90
19654;DHT22;9975;48.046;7.804;2023-05-10T08:15:46;14.20;99.90
19654;DHT22;9975;48.046;7.804;2023-05-10T08:18:12;14.20;99.90
19654;DHT22;9975;48.046;7.804;2023-05-10T08:20:38;14.20;99.90
19654;DHT22;9975;48.046;7.804;2023-05-10T08:23:03;14.30;99.90
19654;DHT22;9975;48.046;7.804;2023-05-10T08:25:29;14.30;99.90
19654;DHT22;9975;48.046;7.804;2023-05-10T08:27:55;14.30;99.90
19654;DHT22;9975;48.046;7.804;2023-05-10T08:30:20;14.20;99.90
19654;DHT22;9975;48.046;7.804;2023-05-10T08:32:46;14.10;99.90
19654;DHT22;9975;48.046;7.804;2023-05-10T08:35:12;14.10;99.90
19654;DHT22;9975;48.046;7.804;2023-05-10T08:37:37;14.10;99.90
19654;DHT22;9975;48.046;7.804;2023-05-10T08:40:03;14.30;99.90
19654;DHT22;9975;48.046;7.804;2023-05-10T08:42:30;14.50;99.90
19654;DHT22;9975;48.046;7.804;2023-05-10T08:44:57;14.50;99.90
19654;DHT22;9975;48.046;7.804;2023-05-10T08:47:23;14.60;99.90
19654;DHT22;9975;48.046;7.804;2023-05-10T08:49:48;14.80;99.90
19654;DHT22;9975;48.046;7.804;2023-05-10T08:52:17;15.10;99.90
19654;DHT22;9975;48.046;7.804;2023-05-10T08:54:43;15.20;99.90
19654;DHT22;9975;48.046;7.804;2023-05-10T08:57:10;15.40;99.90
19654;DHT22;9975;48.046;7.804;2023-05-10T08:59:36;15.40;99.90
19654;DHT22;9975;48.046;7.804;2023-05-10T09:02:04;15.40;99.90
19654;DHT22;9975;48.046;7.804;2023-05-10T09:04:31;15.20;99.90
19654;DHT22;9975;48.046;7.804;2023-05-10T09:06:56;14.90;99.90
19654;DHT22;9975;48.046;7.804;2023-05-10T09:09:24;14.60;99.90
19654;DHT22;9975;48.046;7.804;2023-05-10T09:11:51;14.60;99.90
19654;DHT22;9975;48.046;7.804;2023-05-10T09:14:17;14.50;99.90
19654;DHT22;9975;48.046;7.804;2023-05-10T09:16:43;14.40;99.90
19654;DHT22;9975;48.046;7.804;2023-05-10T09:19:09;14.40;99.90
19654;DHT22;9975;48.046;7.804;2023-05-10T09:21:35;14.50;99.90
19654;DHT22;9975;48.046;7.804;2023-05-10T09:24:04;14.50;99.90
19654;DHT22;9975;48.046;7.804;2023-05-10T09:26:30;14.50;99.90
19654;DHT22;9975;48.046;7.804;2023-05-10T09:28:58;14.50;99.90
19654;DHT22;9975;48.046;7.804;2023-05-10T09:31:25;14.50;99.90
19654;DHT22;9975;48.046;7.804;2023-05-10T09:34:08;14.50;99.90
19654;DHT22;9975;48.046;7.804;2023-05-10T09:36:33;14.40;99.90
19654;DHT22;9975;48.046;7.804;2023-05-10T09:38:59;14.50;99.90
19654;DHT22;9975;48.046;7.804;2023-05-10T09:41:25;14.60;99.90
19654;DHT22;9975;48.046;7.804;2023-05-10T09:43:55;14.70;99.90
19654;DHT22;9975;48.046;7.804;2023-05-10T09:46:22;14.80;99.90
19654;DHT22;9975;48.046;7.804;2023-05-10T09:48:51;14.80;99.90
19654;DHT22;9975;48.046;7.804;2023-05-10T09:51:24;14.70;99.90
19654;DHT22;9975;48.046;7.804;2023-05-10T09:54:15;14.60;99.90
19654;DHT22;9975;48.046;7.804;2023-05-10T09:56:41;14.70;99.90
19654;DHT22;9975;48.046;7.804;2023-05-10T09:59:12;14.70;99.90
19654;DHT22;9975;48.046;7.804;2023-05-10T10:01:38;14.80;99.90
19654;DHT22;9975;48.046;7.804;2023-05-10T10:04:05;15.20;99.90
19654;DHT22;9975;48.046;7.804;2023-05-10T10:06:40;15.40;99.90
19654;DHT22;9975;48.046;7.804;2023-05-10T10:09:06;15.70;99.90
19654;DHT22;9975;48.046;7.804;2023-05-10T10:11:37;15.90;99.90
19654;DHT22;9975;48.046;7.804;2023-05-10T10:14:03;16.10;99.90
19654;DHT22;9975;48.046;7.804;2023-05-10T10:16:29;16.40;99.90
19654;DHT22;9975;48.046;7.804;2023-05-10T10:18:56;16.80;99.90
19654;DHT22;9975;48.046;7.804;2023-05-10T10:21:22;16.60;99.90
19654;DHT22;9975;48.046;7.804;2023-05-10T10:23:48;16.50;99.90
19654;DHT22;9975;48.046;7.804;2023-05-10T10:26:15;16.70;99.90
19654;DHT22;9975;48.046;7.804;2023-05-10T10:34:01;16.50;99.90
19654;DHT22;9975;48.046;7.804;2023-05-10T10:36:27;16.60;99.70
19654;DHT22;9975;48.046;7.804;2023-05-10T10:39:00;17.00;98.50
19654;DHT22;9975;48.046;7.804;2023-05-10T10:41:39;17.10;96.20
19654;DHT22;9975;48.046;7.804;2023-05-10T10:49:49;17.90;90.50
19654;DHT22;9975;48.046;7.804;2023-05-10T10:55:19;17.60;85.20
19654;DHT22;9975;48.046;7.804;2023-05-10T10:57:49;17.70;86.30
19654;DHT22;9975;48.046;7.804;2023-05-10T11:00:21;18.30;90.30
19654;DHT22;9975;48.046;7.804;2023-05-10T11:02:59;18.40;87.90
19654;DHT22;9975;48.046;7.804;2023-05-10T11:05:46;18.60;82.90
19654;DHT22;9975;48.046;7.804;2023-05-10T11:16:09;19.60;78.20
19654;DHT22;9975;48.046;7.804;2023-05-10T11:18:36;20.00;76.40
19654;DHT22;9975;48.046;7.804;2023-05-10T11:21:02;19.30;70.50
19654;DHT22;9975;48.046;7.804;2023-05-10T11:26:13;18.40;71.40
19654;DHT22;9975;48.046;7.804;2023-05-10T11:28:49;17.90;73.20
19654;DHT22;9975;48.046;7.804;2023-05-10T11:31:16;18.40;76.80
19654;DHT22;9975;48.046;7.804;2023-05-10T11:33:43;18.40;76.10
19654;DHT22;9975;48.046;7.804;2023-05-10T11:36:21;18.40;74.40
19654;DHT22;9975;48.046;7.804;2023-05-10T11:38:48;18.80;73.90
19654;DHT22;9975;48.046;7.804;2023-05-10T11:41:16;19.00;74.40
19654;DHT22;9975;48.046;7.804;2023-05-10T11:43:45;18.60;72.30
19654;DHT22;9975;48.046;7.804;2023-05-10T11:46:12;18.40;73.60
19654;DHT22;9975;48.046;7.804;2023-05-10T11:48:42;18.40;72.90
19654;DHT22;9975;48.046;7.804;2023-05-10T11:51:11;18.20;73.00
19654;DHT22;9975;48.046;7.804;2023-05-10T11:53:36;18.10;70.80
19654;DHT22;9975;48.046;7.804;2023-05-10T11:56:07;17.90;72.90
19654;DHT22;9975;48.046;7.804;2023-05-10T11:58:34;18.00;73.20
19654;DHT22;9975;48.046;7.804;2023-05-10T12:01:00;18.30;74.50
19654;DHT22;9975;48.046;7.804;2023-05-10T12:03:27;18.30;71.80
19654;DHT22;9975;48.046;7.804;2023-05-10T12:05:54;18.30;72.60
19654;DHT22;9975;48.046;7.804;2023-05-10T12:08:21;18.40;74.50
19654;DHT22;9975;48.046;7.804;2023-05-10T12:10:47;18.30;72.20
19654;DHT22;9975;48.046;7.804;2023-05-10T12:13:14;18.10;71.90
19654;DHT22;9975;48.046;7.804;2023-05-10T12:15:41;18.00;74.10
19654;DHT22;9975;48.046;7.804;2023-05-10T12:18:14;18.00;73.40
19654;DHT22;9975;48.046;7.804;2023-05-10T12:20:40;17.80;72.60
19654;DHT22;9975;48.046;7.804;2023-05-10T12:23:09;17.60;73.90
19654;DHT22;9975;48.046;7.804;2023-05-10T12:25:37;17.40;72.20
19654;DHT22;9975;48.046;7.804;2023-05-10T12:28:04;17.20;74.40
19654;DHT22;9975;48.046;7.804;2023-05-10T12:30:32;16.90;73.40
19654;DHT22;9975;48.046;7.804;2023-05-10T12:33:02;16.80;74.30
19654;DHT22;9975;48.046;7.804;2023-05-10T12:35:32;16.80;73.00
19654;DHT22;9975;48.046;7.804;2023-05-10T12:37:58;16.80;72.90
19654;DHT22;9975;48.046;7.804;2023-05-10T12:40:24;16.90;72.40
19654;DHT22;9975;48.046;7.804;2023-05-10T12:42:50;17.10;73.10
19654;DHT22;9975;48.046;7.804;2023-05-10T12:45:17;17.10;72.40
19654;DHT22;9975;48.046;7.804;2023-05-10T12:47:43;17.00;75.30
19654;DHT22;9975;48.046;7.804;2023-05-10T12:50:09;16.80;76.20
19654;DHT22;9975;48.046;7.804;2023-05-10T12:52:35;16.80;79.20
19654;DHT22;9975;48.046;7.804;2023-05-10T12:55:01;16.80;78.50
19654;DHT22;9975;48.046;7.804;2023-05-10T12:57:28;17.30;80.70
19654;DHT22;9975;48.046;7.804;2023-05-10T12:59:54;17.40;81.20
19654;DHT22;9975;48.046;7.804;2023-05-10T13:02:20;17.20;80.50
19654;DHT22;9975;48.046;7.804;2023-05-10T13:04:48;17.00;80.10
19654;DHT22;9975;48.046;7.804;2023-05-10T13:07:13;17.20;81.90
19654;DHT22;9975;48.046;7.804;2023-05-10T13:09:39;17.20;79.70
19654;DHT22;9975;48.046;7.804;2023-05-10T13:12:05;16.90;74.50
19654;DHT22;9975;48.046;7.804;2023-05-10T13:14:31;16.60;74.50
19654;DHT22;9975;48.046;7.804;2023-05-10T13:16:57;16.50;75.40
19654;DHT22;9975;48.046;7.804;2023-05-10T13:19:23;16.40;75.20
19654;DHT22;9975;48.046;7.804;2023-05-10T13:21:48;16.40;76.40
19654;DHT22;9975;48.046;7.804;2023-05-10T13:24:14;16.40;75.00
19654;DHT22;9975;48.046;7.804;2023-05-10T13:26:40;16.30;75.90
19654;DHT22;9975;48.046;7.804;2023-05-10T13:29:06;16.30;76.50
19654;DHT22;9975;48.046;7.804;2023-05-10T13:31:34;16.40;77.30
19654;DHT22;9975;48.046;7.804;2023-05-10T13:34:00;16.40;78.00
19654;DHT22;9975;48.046;7.804;2023-05-10T13:36:26;16.40;78.80
19654;DHT22;9975;48.046;7.804;2023-05-10T13:38:51;16.50;80.10
19654;DHT22;9975;48.046;7.804;2023-05-10T13:41:17;16.50;78.70
19654;DHT22;9975;48.046;7.804;2023-05-10T13:43:42;16.70;78.70
19654;DHT22;9975;48.046;7.804;2023-05-10T13:46:08;16.80;78.30
19654;DHT22;9975;48.046;7.804;2023-05-10T13:48:34;17.00;78.90
19654;DHT22;9975;48.046;7.804;2023-05-10T13:50:59;17.30;77.70
19654;DHT22;9975;48.046;7.804;2023-05-10T13:53:25;17.50;78.00
19654;DHT22;9975;48.046;7.804;2023-05-10T13:55:50;17.60;75.90
19654;DHT22;9975;48.046;7.804;2023-05-10T13:58:16;17.30;76.40
19654;DHT22;9975;48.046;7.804;2023-05-10T14:00:42;17.60;78.00
19654;DHT22;9975;48.046;7.804;2023-05-10T14:03:08;17.60;74.40
19654;DHT22;9975;48.046;7.804;2023-05-10T14:05:36;17.80;74.40
19654;DHT22;9975;48.046;7.804;2023-05-10T14:08:01;18.10;74.30
19654;DHT22;9975;48.046;7.804;2023-05-10T14:10:29;18.10;72.20
19654;DHT22;9975;48.046;7.804;2023-05-10T14:12:56;17.90;67.50
19654;DHT22;9975;48.046;7.804;2023-05-10T14:15:22;17.80;68.40
19654;DHT22;9975;48.046;7.804;2023-05-10T14:17:48;18.30;67.10
19654;DHT22;9975;48.046;7.804;2023-05-10T14:20:14;18.30;67.40
19654;DHT22;9975;48.046;7.804;2023-05-10T14:22:40;18.00;67.90
19654;DHT22;9975;48.046;7.804;2023-05-10T14:25:06;17.60;66.30
19654;DHT22;9975;48.046;7.804;2023-05-10T14:27:32;17.60;68.40
19654;DHT22;9975;48.046;7.804;2023-05-10T14:29:57;17.60;67.90
19654;DHT22;9975;48.046;7.804;2023-05-10T14:32:24;17.60;69.00
19654;DHT22;9975;48.046;7.804;2023-05-10T14:34:52;17.40;69.60
19654;DHT22;9975;48.046;7.804;2023-05-10T14:37:18;17.60;70.60
19654;DHT22;9975;48.046;7.804;2023-05-10T14:39:43;17.40;70.00
19654;DHT22;9975;48.046;7.804;2023-05-10T14:42:09;17.30;71.00
19654;DHT22;9975;48.046;7.804;2023-05-10T14:44:35;17.30;70.50
19654;DHT22;9975;48.046;7.804;2023-05-10T14:47:00;17.10;71.80
19654;DHT22;9975;48.046;7.804;2023-05-10T14:49:26;17.20;71.20
19654;DHT22;9975;48.046;7.804;2023-05-10T14:51:51;17.20;73.00
19654;DHT22;9975;48.046;7.804;2023-05-10T14:54:17;17.50;70.80
19654;DHT22;9975;48.046;7.804;2023-05-10T14:56:43;17.30;71.50
19654;DHT22;9975;48.046;7.804;2023-05-10T14:59:09;17.00;74.30
19654;DHT22;9975;48.046;7.804;2023-05-10T15:01:34;16.80;72.10
19654;DHT22;9975;48.046;7.804;2023-05-10T15:04:03;16.70;72.80
19654;DHT22;9975;48.046;7.804;2023-05-10T15:06:32;16.60;74.20
19654;DHT22;9975;48.046;7.804;2023-05-10T15:08:59;16.90;74.50
19654;DHT22;9975;48.046;7.804;2023-05-10T15:11:25;17.40;73.80
19654;DHT22;9975;48.046;7.804;2023-05-10T15:13:51;17.50;75.10
19654;DHT22;9975;48.046;7.804;2023-05-10T15:16:16;17.70;74.60
19654;DHT22;9975;48.046;7.804;2023-05-10T15:18:42;17.40;73.80
19654;DHT22;9975;48.046;7.804;2023-05-10T15:21:08;17.50;73.50
19654;DHT22;9975;48.046;7.804;2023-05-10T15:23:34;17.40;72.10
19654;DHT22;9975;48.046;7.804;2023-05-10T15:26:00;17.30;72.80
19654;DHT22;9975;48.046;7.804;2023-05-10T15:28:26;17.10;72.10
19654;DHT22;9975;48.046;7.804;2023-05-10T15:30:51;17.10;71.70
19654;DHT22;9975;48.046;7.804;2023-05-10T15:33:17;17.30;71.40
19654;DHT22;9975;48.046;7.804;2023-05-10T15:35:42;17.60;71.30
19654;DHT22;9975;48.046;7.804;2023-05-10T15:38:09;17.90;71.50
19654;DHT22;9975;48.046;7.804;2023-05-10T15:40:35;17.80;69.30
19654;DHT22;9975;48.046;7.804;2023-05-10T15:43:00;18.10;69.80
19654;DHT22;9975;48.046;7.804;2023-05-10T15:45:26;18.60;68.30
19654;DHT22;9975;48.046;7.804;2023-05-10T15:47:52;18.90;66.60
19654;DHT22;9975;48.046;7.804;2023-05-10T15:50:17;18.90;65.10
19654;DHT22;9975;48.046;7.804;2023-05-10T15:52:43;18.90;65.90
19654;DHT22;9975;48.046;7.804;2023-05-10T15:55:09;19.20;65.50
19654;DHT22;9975;48.046;7.804;2023-05-10T15:57:38;19.00;63.20
19654;DHT22;9975;48.046;7.804;2023-05-10T16:00:05;19.00;63.50
19654;DHT22;9975;48.046;7.804;2023-05-10T16:02:31;18.70;63.10
19654;DHT22;9975;48.046;7.804;2023-05-10T16:04:57;18.40;64.50
19654;DHT22;9975;48.046;7.804;2023-05-10T16:07:22;17.70;67.10
19654;DHT22;9975;48.046;7.804;2023-05-10T16:09:48;17.60;68.60
19654;DHT22;9975;48.046;7.804;2023-05-10T16:12:14;17.50;69.30
19654;DHT22;9975;48.046;7.804;2023-05-10T16:14:40;17.00;70.80
19654;DHT22;9975;48.046;7.804;2023-05-10T16:17:05;16.80;72.50
19654;DHT22;9975;48.046;7.804;2023-05-10T16:19:32;16.70;73.80
19654;DHT22;9975;48.046;7.804;2023-05-10T16:21:57;16.60;72.00
19654;DHT22;9975;48.046;7.804;2023-05-10T16:24:24;16.50;72.40
19654;DHT22;9975;48.046;7.804;2023-05-10T16:26:50;16.20;77.10
19654;DHT22;9975;48.046;7.804;2023-05-10T16:29:16;15.80;86.80
19654;DHT22;9975;48.046;7.804;2023-05-10T16:31:41;15.50;90.60
19654;DHT22;9975;48.046;7.804;2023-05-10T16:34:07;15.60;91.70
19654;DHT22;9975;48.046;7.804;2023-05-10T16:36:33;15.60;94.10
19654;DHT22;9975;48.046;7.804;2023-05-10T16:38:59;15.70;96.30
19654;DHT22;9975;48.046;7.804;2023-05-10T16:41:24;15.80;97.90
19654;DHT22;9975;48.046;7.804;2023-05-10T16:43:50;15.90;99.70
19654;DHT22;9975;48.046;7.804;2023-05-10T16:46:17;16.10;98.90
19654;DHT22;9975;48.046;7.804;2023-05-10T16:48:43;16.10;99.90
19654;DHT22;9975;48.046;7.804;2023-05-10T16:51:08;16.20;99.90
19654;DHT22;9975;48.046;7.804;2023-05-10T16:53:34;16.20;99.90
19654;DHT22;9975;48.046;7.804;2023-05-10T16:56:00;16.30;99.90
19654;DHT22;9975;48.046;7.804;2023-05-10T16:58:26;16.50;99.90
19654;DHT22;9975;48.046;7.804;2023-05-10T17:00:52;16.70;99.90
19654;DHT22;9975;48.046;7.804;2023-05-10T17:03:17;16.70;99.90
19654;DHT22;9975;48.046;7.804;2023-05-10T17:05:43;16.90;99.90
19654;DHT22;9975;48.046;7.804;2023-05-10T17:08:09;16.90;99.90
19654;DHT22;9975;48.046;7.804;2023-05-10T17:10:38;16.90;99.90
19654;DHT22;9975;48.046;7.804;2023-05-10T17:13:03;17.00;99.90
19654;DHT22;9975;48.046;7.804;2023-05-10T17:15:29;16.90;99.90
19654;DHT22;9975;48.046;7.804;2023-05-10T17:17:55;16.70;99.90
19654;DHT22;9975;48.046;7.804;2023-05-10T17:20:20;16.40;99.90
19654;DHT22;9975;48.046;7.804;2023-05-10T17:22:47;16.20;99.90
19654;DHT22;9975;48.046;7.804;2023-05-10T17:25:12;16.00;99.90
19654;DHT22;9975;48.046;7.804;2023-05-10T17:27:38;15.90;99.90
19654;DHT22;9975;48.046;7.804;2023-05-10T17:30:04;15.80;99.90
19654;DHT22;9975;48.046;7.804;2023-05-10T17:32:30;15.70;99.90
19654;DHT22;9975;48.046;7.804;2023-05-10T17:34:56;15.60;99.90
19654;DHT22;9975;48.046;7.804;2023-05-10T17:37:22;15.40;99.90
19654;DHT22;9975;48.046;7.804;2023-05-10T17:39:48;15.30;99.90
19654;DHT22;9975;48.046;7.804;2023-05-10T17:42:13;15.20;99.90
19654;DHT22;9975;48.046;7.804;2023-05-10T17:44:42;15.00;99.90
19654;DHT22;9975;48.046;7.804;2023-05-10T17:47:54;14.70;99.90
19654;DHT22;9975;48.046;7.804;2023-05-10T17:50:19;14.70;99.90
19654;DHT22;9975;48.046;7.804;2023-05-10T17:52:45;14.80;99.90
19654;DHT22;9975;48.046;7.804;2023-05-10T17:55:10;14.80;99.90
19654;DHT22;9975;48.046;7.804;2023-05-10T17:57:37;14.90;99.90
19654;DHT22;9975;48.046;7.804;2023-05-10T18:00:04;15.00;99.90
19654;DHT22;9975;48.046;7.804;2023-05-10T18:02:31;15.00;99.90
19654;DHT22;9975;48.046;7.804;2023-05-10T18:04:56;15.00;99.90
19654;DHT22;9975;48.046;7.804;2023-05-10T18:07:25;15.00;99.90
19654;DHT22;9975;48.046;7.804;2023-05-10T18:09:51;15.10;99.90